createdAt,value
2022-12-26T00:01:36.703Z,56.22
2022-12-26T00:04:04.595Z,54.17
2022-12-26T00:06:32.799Z,58.80
2022-12-26T00:09:01.559Z,56.11
2022-12-26T00:11:29.834Z,54.63
2022-12-26T00:13:59.779Z,55.58
2022-12-26T00:16:27.963Z,52.49
2022-12-26T00:18:56.081Z,53.90
2022-12-26T00:21:25.762Z,55.64
2022-12-26T00:23:54.426Z,56.58
2022-12-26T00:26:24.639Z,54.41
2022-12-26T00:28:53.821Z,54.94
2022-12-26T00:31:26.910Z,54.36
2022-12-26T00:33:54.751Z,55.55
2022-12-26T00:36:24.702Z,56.46
2022-12-26T00:38:52.315Z,57.30
2022-12-26T00:41:21.174Z,56.87
2022-12-26T00:43:49.050Z,56.16
2022-12-26T00:46:17.410Z,55.47
2022-12-26T00:48:45.257Z,53.33
2022-12-26T00:51:13.482Z,53.29
2022-12-26T00:53:40.989Z,53.97
2022-12-26T00:56:08.967Z,55.62
2022-12-26T00:58:37.346Z,55.46
2022-12-26T01:01:11.106Z,57.40
2022-12-26T01:03:39.895Z,58.88
2022-12-26T01:06:07.634Z,54.74
2022-12-26T01:08:35.087Z,54.57
2022-12-26T01:11:07.335Z,58.80
2022-12-26T01:13:35.316Z,60.21
2022-12-26T01:16:03.577Z,58.22
2022-12-26T01:18:31.682Z,55.37
2022-12-26T01:21:01.804Z,59.68
2022-12-26T01:23:29.672Z,58.66
2022-12-26T01:26:17.504Z,56.49
2022-12-26T01:28:44.742Z,57.20
2022-12-26T01:31:12.178Z,54.52
2022-12-26T01:33:39.923Z,59.20
2022-12-26T01:36:07.861Z,62.23
2022-12-26T01:38:35.440Z,58.12
2022-12-26T01:41:19.840Z,58.91
2022-12-26T01:43:54.425Z,59.55
2022-12-26T01:46:44.926Z,57.87
2022-12-26T01:49:30.231Z,57.55
2022-12-26T01:51:58.250Z,59.12
2022-12-26T01:54:37.601Z,59.34
2022-12-26T01:57:11.025Z,60.67
2022-12-26T01:59:40.530Z,61.26
2022-12-26T02:02:08.643Z,61.09
2022-12-26T02:05:00.122Z,60.97
2022-12-26T02:07:28.397Z,61.02
2022-12-26T02:09:56.155Z,61.10
2022-12-26T02:12:34.528Z,60.37
2022-12-26T02:15:08.071Z,60.98
2022-12-26T02:17:36.418Z,63.08
2022-12-26T02:20:16.219Z,62.27
2022-12-26T02:22:56.345Z,63.86
2022-12-26T02:25:43.192Z,64.73
2022-12-26T02:28:39.416Z,62.38
2022-12-26T02:31:25.758Z,60.08
2022-12-26T02:33:56.466Z,60.30
2022-12-26T02:36:28.466Z,64.34
2022-12-26T02:39:02.053Z,63.60
2022-12-26T02:41:47.391Z,63.51
2022-12-26T02:44:33.625Z,63.02
2022-12-26T02:47:38.779Z,64.03
2022-12-26T02:51:08.849Z,62.06
2022-12-26T02:54:16.399Z,61.81
2022-12-26T02:57:07.175Z,58.99
2022-12-26T02:59:57.291Z,59.05
2022-12-26T03:02:49.273Z,58.87
2022-12-26T03:05:41.374Z,55.45
2022-12-26T03:08:31.346Z,57.10
2022-12-26T03:11:17.734Z,58.60
2022-12-26T03:13:45.519Z,58.00
2022-12-26T03:16:32.407Z,58.39
2022-12-26T03:19:03.961Z,61.35
2022-12-26T03:21:37.143Z,57.36
2022-12-26T03:24:05.004Z,57.41
2022-12-26T03:26:42.379Z,57.73
2022-12-26T03:29:30.917Z,56.40
2022-12-26T03:31:59.302Z,58.51
2022-12-26T03:34:27.043Z,61.58
2022-12-26T03:37:02.618Z,58.92
2022-12-26T03:40:08.089Z,59.33
2022-12-26T03:43:06.045Z,59.92
2022-12-26T03:46:06.707Z,57.87
2022-12-26T03:49:15.747Z,57.47
2022-12-26T03:52:32.699Z,56.55
2022-12-26T03:55:25.982Z,64.20
2022-12-26T03:58:33.037Z,60.36
2022-12-26T04:01:20.051Z,59.24
2022-12-26T04:04:07.145Z,59.03
2022-12-26T04:07:04.600Z,60.81
2022-12-26T04:09:56.419Z,59.13
2022-12-26T04:12:44.880Z,59.16
2022-12-26T04:15:48.453Z,59.54
2022-12-26T04:18:39.211Z,56.69
2022-12-26T04:21:39.994Z,55.16
2022-12-26T04:24:45.494Z,55.89
2022-12-26T04:27:33.555Z,55.62
2022-12-26T04:30:19.886Z,55.46
2022-12-26T04:33:08.551Z,58.46
2022-12-26T04:36:07.441Z,57.19
2022-12-26T04:38:57.503Z,56.98
2022-12-26T04:41:44.059Z,53.68
2022-12-26T04:44:13.097Z,55.08
2022-12-26T04:46:43.450Z,55.85
2022-12-26T04:49:32.358Z,55.94
2022-12-26T04:52:01.677Z,55.24
2022-12-26T04:54:29.137Z,55.84
2022-12-26T04:56:56.586Z,55.12
2022-12-26T04:59:24.838Z,54.61
2022-12-26T05:02:10.963Z,55.25
2022-12-26T05:04:57.337Z,59.26
2022-12-26T05:07:46.000Z,56.60
2022-12-26T05:10:18.702Z,57.53
2022-12-26T05:12:46.108Z,55.50
2022-12-26T05:15:14.188Z,55.14
2022-12-26T05:18:00.297Z,53.22
2022-12-26T05:20:30.722Z,54.00
2022-12-26T05:23:17.183Z,57.00
2022-12-26T05:26:05.566Z,55.32
2022-12-26T05:28:42.111Z,54.81
2022-12-26T05:31:15.369Z,54.44
2022-12-26T05:34:02.279Z,55.14
2022-12-26T05:36:48.545Z,55.33
2022-12-26T05:39:16.028Z,55.10
2022-12-26T05:41:43.859Z,54.67
2022-12-26T05:44:11.973Z,57.69
2022-12-26T05:46:39.606Z,55.36
2022-12-26T05:49:07.397Z,52.32
2022-12-26T05:51:35.544Z,53.82
2022-12-26T05:54:03.504Z,54.34
2022-12-26T05:56:31.245Z,55.69
2022-12-26T05:59:00.452Z,55.91
2022-12-26T06:01:28.914Z,53.91
2022-12-26T06:03:58.324Z,52.99
2022-12-26T06:06:27.090Z,53.00
2022-12-26T06:08:55.612Z,53.78
2022-12-26T06:11:25.821Z,53.93
2022-12-26T06:13:53.357Z,54.21
2022-12-26T06:16:20.900Z,54.78
2022-12-26T06:18:49.671Z,57.48
2022-12-26T06:21:19.105Z,56.19
2022-12-26T06:23:47.860Z,55.69
2022-12-26T06:26:16.231Z,54.86
2022-12-26T06:28:44.043Z,57.12
2022-12-26T06:31:20.451Z,56.49
2022-12-26T06:33:49.788Z,53.63
2022-12-26T06:36:20.056Z,52.07
2022-12-26T06:38:47.822Z,50.63
2022-12-26T06:41:18.017Z,51.07
2022-12-26T06:43:47.396Z,50.63
2022-12-26T06:46:17.761Z,51.20
2022-12-26T06:48:45.291Z,53.06
2022-12-26T06:51:18.837Z,55.14
2022-12-26T06:53:46.732Z,54.09
2022-12-26T06:56:19.861Z,55.38
2022-12-26T06:58:47.978Z,58.80
2022-12-26T07:01:17.983Z,62.37
2022-12-26T07:03:51.192Z,62.72
2022-12-26T07:06:23.811Z,60.22
2022-12-26T07:08:52.145Z,55.15
2022-12-26T07:11:22.481Z,49.53
2022-12-26T07:13:49.915Z,52.30
2022-12-26T07:16:17.614Z,50.15
2022-12-26T07:18:45.306Z,54.98
2022-12-26T07:21:14.759Z,55.79
2022-12-26T07:23:42.625Z,62.48
2022-12-26T07:26:10.585Z,61.39
2022-12-26T07:28:38.634Z,62.03
2022-12-26T07:31:06.531Z,61.70
2022-12-26T07:33:34.739Z,67.30
2022-12-26T07:36:06.491Z,64.20
2022-12-26T07:38:34.227Z,70.68
2022-12-26T07:41:24.487Z,67.81
2022-12-26T07:43:52.581Z,67.23
2022-12-26T07:46:20.167Z,69.12
2022-12-26T07:48:47.813Z,66.86
2022-12-26T07:51:15.702Z,63.52
2022-12-26T07:53:43.670Z,66.81
2022-12-26T07:56:11.090Z,67.96
2022-12-26T07:58:38.839Z,65.59
2022-12-26T08:01:06.926Z,67.12
2022-12-26T08:03:35.250Z,69.46
2022-12-26T08:06:02.886Z,65.59
2022-12-26T08:08:30.330Z,58.66
2022-12-26T08:11:02.627Z,61.78
2022-12-26T08:13:30.524Z,63.56
2022-12-26T08:15:58.780Z,59.46
2022-12-26T08:18:26.439Z,59.12
2022-12-26T08:20:53.844Z,55.61
2022-12-26T08:23:21.587Z,53.59
2022-12-26T08:25:49.020Z,54.05
2022-12-26T08:28:16.455Z,52.05
2022-12-26T08:30:44.201Z,57.11
2022-12-26T08:33:12.032Z,54.41
2022-12-26T08:35:40.209Z,56.79
2022-12-26T08:38:08.014Z,60.54
2022-12-26T08:40:43.988Z,57.75
2022-12-26T08:43:30.164Z,57.19
2022-12-26T08:46:06.379Z,59.34
2022-12-26T08:48:34.909Z,59.28
2022-12-26T08:51:05.357Z,60.47
2022-12-26T08:53:33.287Z,61.30
2022-12-26T08:56:01.124Z,57.86
2022-12-26T08:58:29.293Z,56.74
2022-12-26T09:01:09.323Z,55.15
2022-12-26T09:03:38.417Z,53.62
2022-12-26T09:06:06.718Z,54.35
2022-12-26T09:08:35.503Z,54.24
2022-12-26T09:11:12.155Z,54.85
2022-12-26T09:13:39.891Z,55.04
2022-12-26T09:16:17.839Z,54.42
2022-12-26T09:18:46.159Z,56.48
2022-12-26T09:21:15.749Z,56.98
2022-12-26T09:23:43.737Z,57.35
2022-12-26T09:26:17.303Z,55.85
2022-12-26T09:28:47.042Z,55.95
2022-12-26T09:31:17.416Z,55.65
2022-12-26T09:33:47.121Z,53.64
2022-12-26T09:36:17.068Z,52.90
2022-12-26T09:38:46.103Z,52.12
2022-12-26T09:41:32.141Z,52.93
2022-12-26T09:44:10.154Z,56.03
2022-12-26T09:47:06.715Z,54.96
2022-12-26T09:49:37.622Z,51.79
2022-12-26T09:52:48.506Z,52.24
2022-12-26T09:55:18.995Z,55.22
2022-12-26T09:57:47.928Z,56.29
2022-12-26T10:00:21.080Z,57.13
2022-12-26T10:02:54.044Z,59.22
2022-12-26T10:05:23.831Z,60.53
2022-12-26T10:07:57.827Z,60.63
2022-12-26T10:10:45.732Z,59.60
2022-12-26T10:13:29.388Z,58.68
2022-12-26T10:16:18.235Z,60.16
2022-12-26T10:18:53.805Z,56.66
2022-12-26T10:21:21.151Z,53.10
2022-12-26T10:23:52.619Z,53.94
2022-12-26T10:26:33.580Z,53.26
2022-12-26T10:29:10.360Z,53.69
2022-12-26T10:31:42.284Z,53.15
2022-12-26T10:34:29.302Z,51.25
2022-12-26T10:37:01.565Z,52.52
2022-12-26T10:39:35.982Z,51.45
2022-12-26T10:42:11.039Z,52.24
2022-12-26T10:44:40.642Z,53.47
2022-12-26T10:47:15.365Z,55.94
2022-12-26T10:49:45.596Z,55.75
2022-12-26T10:52:14.437Z,53.33
2022-12-26T10:54:42.218Z,52.28
2022-12-26T10:57:11.314Z,59.04
2022-12-26T10:59:42.675Z,51.61
2022-12-26T11:02:31.880Z,53.51
2022-12-26T11:05:15.957Z,53.00
2022-12-26T11:07:52.653Z,51.92
2022-12-26T11:10:22.786Z,53.11
2022-12-26T11:13:01.174Z,53.57
2022-12-26T11:15:41.075Z,52.32
2022-12-26T11:18:37.713Z,53.01
2022-12-26T11:21:17.977Z,53.24
2022-12-26T11:23:51.557Z,51.89
2022-12-26T11:26:21.612Z,51.67
2022-12-26T11:29:12.588Z,51.32
2022-12-26T11:31:59.971Z,52.39
2022-12-26T11:34:34.530Z,51.59
2022-12-26T11:37:03.832Z,51.33
2022-12-26T11:39:35.473Z,50.83
2022-12-26T11:42:14.739Z,49.98
2022-12-26T11:44:45.468Z,51.62
2022-12-26T11:47:15.372Z,52.11
2022-12-26T11:50:03.257Z,51.29
2022-12-26T11:52:39.889Z,50.92
2022-12-26T11:55:22.826Z,51.91
2022-12-26T11:58:09.745Z,51.27
2022-12-26T12:00:39.901Z,54.45
2022-12-26T12:03:31.063Z,51.46
2022-12-26T12:06:20.702Z,52.82
2022-12-26T12:09:12.873Z,52.16
2022-12-26T12:12:17.746Z,52.31
2022-12-26T12:14:57.410Z,50.60
2022-12-26T12:17:28.559Z,51.57
2022-12-26T12:20:08.491Z,51.54
2022-12-26T12:22:49.135Z,51.98
2022-12-26T12:25:28.858Z,50.96
2022-12-26T12:28:00.845Z,50.89
2022-12-26T12:30:53.755Z,50.21
2022-12-26T12:33:30.465Z,50.52
2022-12-26T12:36:36.629Z,50.87
2022-12-26T12:39:13.295Z,50.18
2022-12-26T12:41:53.366Z,49.53
2022-12-26T12:44:32.145Z,51.65
2022-12-26T12:47:10.743Z,49.95
2022-12-26T12:49:57.630Z,49.66
2022-12-26T12:52:37.098Z,49.81
2022-12-26T12:55:36.882Z,49.11
2022-12-26T12:58:04.478Z,49.37
2022-12-26T13:00:45.034Z,48.33
2022-12-26T13:03:49.049Z,49.68
2022-12-26T13:06:26.817Z,49.53
2022-12-26T13:09:08.813Z,51.44
2022-12-26T13:11:39.668Z,51.17
2022-12-26T13:14:14.722Z,51.09
2022-12-26T13:16:45.372Z,50.37
2022-12-26T13:19:51.596Z,49.07
2022-12-26T13:22:26.077Z,48.81
2022-12-26T13:24:59.669Z,48.23
2022-12-26T13:27:31.701Z,48.93
2022-12-26T13:29:59.367Z,48.59
2022-12-26T13:32:28.137Z,47.48
2022-12-26T13:34:57.662Z,46.94
2022-12-26T13:37:37.555Z,49.11
2022-12-26T13:40:10.950Z,49.87
2022-12-26T13:43:03.086Z,48.46
2022-12-26T13:45:48.788Z,49.48
2022-12-26T13:48:16.451Z,48.96
2022-12-26T13:50:56.460Z,48.03
2022-12-26T13:53:27.160Z,49.13
2022-12-26T13:55:57.122Z,50.01
2022-12-26T13:58:43.604Z,56.23
2022-12-26T14:01:55.062Z,56.10
2022-12-26T14:04:41.837Z,53.23
2022-12-26T14:07:35.824Z,52.26
2022-12-26T14:10:23.961Z,51.31
2022-12-26T14:13:03.584Z,50.81
2022-12-26T14:15:43.329Z,50.73
2022-12-26T14:18:28.476Z,50.33
2022-12-26T14:21:15.261Z,50.83
2022-12-26T14:24:10.944Z,50.89
2022-12-26T14:26:41.196Z,50.20
2022-12-26T14:29:21.154Z,50.75
2022-12-26T14:32:30.141Z,50.10
2022-12-26T14:35:36.535Z,50.51
2022-12-26T14:38:22.380Z,50.85
2022-12-26T14:41:01.240Z,50.48
2022-12-26T14:43:37.043Z,51.59
2022-12-26T14:46:30.893Z,50.48
2022-12-26T14:49:01.031Z,51.56
2022-12-26T14:51:32.023Z,51.37
2022-12-26T14:54:27.903Z,51.01
2022-12-26T14:56:55.412Z,51.26
2022-12-26T14:59:29.462Z,51.21
2022-12-26T15:02:12.246Z,51.40
2022-12-26T15:05:12.210Z,51.11
2022-12-26T15:07:57.959Z,50.57
2022-12-26T15:10:46.971Z,51.21
2022-12-26T15:13:30.338Z,53.58
2022-12-26T15:16:02.830Z,51.98
2022-12-26T15:18:54.519Z,52.95
2022-12-26T15:21:43.773Z,53.93
2022-12-26T15:25:16.510Z,53.24
2022-12-26T15:27:20.308Z,53.39
2022-12-26T15:30:07.953Z,54.08
2022-12-26T15:32:57.493Z,54.25
2022-12-26T15:35:45.470Z,55.04
2022-12-26T15:38:26.353Z,53.76
2022-12-26T15:41:15.573Z,57.72
2022-12-26T15:44:08.726Z,56.45
2022-12-26T15:46:42.763Z,54.58
2022-12-26T15:49:26.352Z,54.46
2022-12-26T15:52:02.783Z,51.16
2022-12-26T15:54:38.559Z,50.70
2022-12-26T15:57:26.957Z,53.83
2022-12-26T16:00:15.511Z,55.35
2022-12-26T16:03:18.236Z,53.51
2022-12-26T16:05:48.279Z,51.68
2022-12-26T16:08:43.370Z,56.12
2022-12-26T16:11:23.119Z,59.57
2022-12-26T16:14:02.269Z,59.71
2022-12-26T16:16:35.751Z,59.96
2022-12-26T16:19:26.863Z,64.37
2022-12-26T16:22:17.822Z,65.34
2022-12-26T16:24:46.332Z,65.54
2022-12-26T16:27:22.165Z,77.25
2022-12-26T16:29:56.348Z,77.43
2022-12-26T16:32:30.462Z,73.83
2022-12-26T16:34:58.932Z,72.17
2022-12-26T16:37:27.033Z,65.55
2022-12-26T16:40:14.933Z,63.64
2022-12-26T16:42:44.706Z,62.18
2022-12-26T16:45:19.748Z,63.53
2022-12-26T16:47:47.744Z,64.86
2022-12-26T16:50:20.701Z,63.18
2022-12-26T16:52:49.071Z,61.92
2022-12-26T16:55:27.605Z,62.85
2022-12-26T16:57:57.098Z,70.97
2022-12-26T17:00:24.663Z,73.90
2022-12-26T17:02:56.316Z,64.40
2022-12-26T17:05:33.064Z,61.01
2022-12-26T17:08:01.938Z,64.29
2022-12-26T17:10:37.427Z,66.55
2022-12-26T17:13:07.588Z,60.54
2022-12-26T17:15:56.867Z,56.46
2022-12-26T17:18:45.184Z,67.88
2022-12-26T17:21:18.771Z,67.89
2022-12-26T17:24:03.013Z,62.61
2022-12-26T17:26:31.675Z,66.02
2022-12-26T17:28:59.936Z,70.29
2022-12-26T17:31:34.067Z,71.52
2022-12-26T17:34:23.996Z,66.70
2022-12-26T17:37:18.286Z,64.90
2022-12-26T17:39:40.555Z,60.05
2022-12-26T17:42:08.085Z,59.88
2022-12-26T17:44:41.966Z,58.86
2022-12-26T17:47:20.227Z,57.95
2022-12-26T17:49:49.566Z,57.17
2022-12-26T17:52:20.522Z,57.33
2022-12-26T17:54:49.582Z,58.66
2022-12-26T17:57:36.334Z,58.04
2022-12-26T18:00:14.141Z,55.94
2022-12-26T18:02:42.271Z,55.84
2022-12-26T18:05:09.955Z,58.31
2022-12-26T18:07:40.068Z,70.16
2022-12-26T18:10:22.569Z,68.86
2022-12-26T18:12:51.579Z,58.95
2022-12-26T18:15:20.148Z,56.93
2022-12-26T18:17:49.522Z,67.22
2022-12-26T18:20:19.963Z,66.33
2022-12-26T18:22:48.385Z,60.76
2022-12-26T18:25:17.007Z,60.99
2022-12-26T18:27:45.084Z,74.27
2022-12-26T18:30:23.115Z,74.24
2022-12-26T18:32:53.143Z,64.67
2022-12-26T18:35:22.069Z,65.66
2022-12-26T18:37:51.661Z,70.78
2022-12-26T18:40:32.914Z,73.12
2022-12-26T18:43:02.140Z,65.09
2022-12-26T18:45:30.364Z,62.00
2022-12-26T18:47:58.446Z,61.23
2022-12-26T18:50:28.522Z,57.57
2022-12-26T18:52:56.714Z,54.06
2022-12-26T18:55:25.508Z,54.46
2022-12-26T18:57:53.418Z,57.54
2022-12-26T19:00:23.402Z,64.32
2022-12-26T19:02:52.131Z,58.50
2022-12-26T19:05:31.157Z,55.34
2022-12-26T19:07:59.573Z,56.74
2022-12-26T19:10:30.871Z,55.03
2022-12-26T19:13:05.357Z,55.02
2022-12-26T19:15:35.617Z,58.13
2022-12-26T19:18:05.438Z,63.59
2022-12-26T19:20:37.693Z,61.59
2022-12-26T19:23:09.698Z,65.33
2022-12-26T19:25:37.535Z,67.94
2022-12-26T19:28:05.093Z,66.98
2022-12-26T19:30:38.471Z,70.39
2022-12-26T19:33:07.454Z,59.27
2022-12-26T19:35:35.868Z,58.59
2022-12-26T19:38:03.653Z,68.81
2022-12-26T19:40:31.687Z,71.03
2022-12-26T19:42:59.850Z,71.45
2022-12-26T19:45:28.038Z,71.95
2022-12-26T19:47:55.866Z,69.74
2022-12-26T19:50:24.031Z,69.18
2022-12-26T19:52:51.582Z,71.13
2022-12-26T19:55:19.664Z,75.49
2022-12-26T19:57:47.913Z,71.30
2022-12-26T20:00:15.608Z,65.74
2022-12-26T20:02:43.668Z,66.19
2022-12-26T20:05:12.021Z,66.14
2022-12-26T20:07:39.645Z,66.28
2022-12-26T20:10:07.926Z,71.65
2022-12-26T20:12:35.650Z,60.00
2022-12-26T20:15:03.110Z,63.63
2022-12-26T20:17:31.307Z,76.73
2022-12-26T20:20:00.132Z,78.17
2022-12-26T20:22:28.151Z,79.09
2022-12-26T20:24:55.834Z,80.49
2022-12-26T20:27:23.394Z,80.47
2022-12-26T20:29:51.098Z,72.68
2022-12-26T20:32:18.815Z,66.75
2022-12-26T20:34:46.512Z,75.37
2022-12-26T20:37:14.121Z,77.13
2022-12-26T20:39:42.136Z,76.15
2022-12-26T20:42:10.160Z,78.98
2022-12-26T20:44:41.786Z,79.95
2022-12-26T20:47:09.919Z,85.35
2022-12-26T20:49:37.365Z,87.16
2022-12-26T20:52:04.947Z,84.93
2022-12-26T20:54:33.034Z,74.09
2022-12-26T20:57:03.118Z,69.87
2022-12-26T20:59:30.886Z,65.96
2022-12-26T21:01:59.483Z,63.62
2022-12-26T21:04:27.192Z,64.09
2022-12-26T21:06:54.619Z,64.83
2022-12-26T21:09:22.727Z,65.50
2022-12-26T21:11:51.145Z,68.24
2022-12-26T21:14:20.818Z,64.40
2022-12-26T21:16:51.784Z,64.34
2022-12-26T21:19:20.604Z,57.46
2022-12-26T21:21:50.931Z,54.60
2022-12-26T21:24:23.914Z,54.53
2022-12-26T21:26:52.582Z,60.31
2022-12-26T21:29:24.747Z,62.54
2022-12-26T21:31:53.539Z,64.45
2022-12-26T21:34:23.080Z,66.32
2022-12-26T21:37:10.071Z,65.31
2022-12-26T21:39:38.481Z,66.07
2022-12-26T21:42:07.917Z,70.58
2022-12-26T21:44:38.783Z,73.67
2022-12-26T21:47:10.090Z,77.52
2022-12-26T21:49:37.708Z,76.17
2022-12-26T21:52:06.607Z,73.49
2022-12-26T21:54:53.207Z,68.37
2022-12-26T21:57:21.449Z,62.79
2022-12-26T21:59:58.244Z,62.51
2022-12-26T22:02:48.751Z,61.25
2022-12-26T22:05:17.901Z,61.93
2022-12-26T22:07:45.816Z,59.42
2022-12-26T22:10:33.925Z,57.16
2022-12-26T22:13:02.784Z,55.86
2022-12-26T22:15:48.901Z,55.54
2022-12-26T22:18:19.931Z,55.96
2022-12-26T22:20:47.401Z,57.57
2022-12-26T22:23:14.790Z,56.26
2022-12-26T22:25:42.601Z,56.21
2022-12-26T22:28:10.378Z,56.70
2022-12-26T22:30:37.788Z,56.73
2022-12-26T22:33:05.543Z,55.36
2022-12-26T22:35:33.509Z,54.55
2022-12-26T22:38:00.908Z,56.14
2022-12-26T22:40:28.753Z,56.07
2022-12-26T22:42:56.169Z,55.77
2022-12-26T22:45:23.551Z,54.93
2022-12-26T22:47:51.223Z,53.20
2022-12-26T22:50:18.707Z,55.66
2022-12-26T22:52:46.149Z,55.95
2022-12-26T22:55:14.564Z,55.58
2022-12-26T22:57:42.156Z,57.26
2022-12-26T23:00:12.648Z,57.61
2022-12-26T23:02:40.567Z,55.64
2022-12-26T23:05:10.523Z,51.85
2022-12-26T23:07:38.353Z,49.85
2022-12-26T23:10:07.556Z,55.82
2022-12-26T23:12:44.641Z,65.64
2022-12-26T23:15:18.192Z,60.77
2022-12-26T23:18:14.136Z,66.34
2022-12-26T23:21:00.460Z,71.46
2022-12-26T23:23:28.036Z,72.14
2022-12-26T23:25:59.554Z,67.08
2022-12-26T23:28:45.907Z,60.96
2022-12-26T23:31:13.660Z,58.35
2022-12-26T23:33:41.243Z,52.33
2022-12-26T23:36:08.880Z,56.34
2022-12-26T23:38:36.526Z,55.90
2022-12-26T23:41:04.027Z,54.64
2022-12-26T23:43:33.527Z,64.89
2022-12-26T23:46:01.242Z,70.43
2022-12-26T23:48:28.716Z,63.19
2022-12-26T23:51:03.753Z,66.17
2022-12-26T23:53:31.457Z,78.71
2022-12-26T23:55:59.179Z,70.47
2022-12-26T23:58:27.064Z,75.20
